createdAt,value
2022-10-02T00:00:04.786Z,74.95
2022-10-02T00:02:44.989Z,74.87
2022-10-02T00:05:24.404Z,75.89
2022-10-02T00:08:06.908Z,75.95
2022-10-02T00:10:44.795Z,75.35
2022-10-02T00:13:46.427Z,76.50
2022-10-02T00:16:29.458Z,76.29
2022-10-02T00:18:57.585Z,75.47
2022-10-02T00:22:13.483Z,77.07
2022-10-02T00:24:50.871Z,76.67
2022-10-02T00:27:56.562Z,76.85
2022-10-02T00:30:23.402Z,76.28
2022-10-02T00:33:47.927Z,75.67
2022-10-02T00:36:33.022Z,76.43
2022-10-02T00:39:44.693Z,76.23
2022-10-02T00:42:52.370Z,77.29
2022-10-02T00:46:01.421Z,76.07
2022-10-02T00:48:52.637Z,76.12
2022-10-02T00:52:15.265Z,77.34
2022-10-02T00:55:20.647Z,77.30
2022-10-02T00:58:31.878Z,77.00
2022-10-02T01:01:17.864Z,77.08
2022-10-02T01:03:56.500Z,77.06
2022-10-02T01:06:25.905Z,78.05
2022-10-02T01:08:52.849Z,78.20
2022-10-02T01:11:21.893Z,77.69
2022-10-02T01:13:49.173Z,77.82
2022-10-02T01:16:16.662Z,78.93
2022-10-02T01:18:46.999Z,79.23
2022-10-02T01:21:33.203Z,79.18
2022-10-02T01:24:16.210Z,80.30
2022-10-02T01:26:43.087Z,79.45
2022-10-02T01:29:09.927Z,80.23
2022-10-02T01:31:37.297Z,79.34
2022-10-02T01:34:04.847Z,79.26
2022-10-02T01:36:32.178Z,78.90
2022-10-02T01:39:00.012Z,78.77
2022-10-02T01:41:26.848Z,78.89
2022-10-02T01:44:00.563Z,79.54
2022-10-02T01:46:51.954Z,77.92
2022-10-02T01:49:59.202Z,78.34
2022-10-02T01:52:51.981Z,78.80
2022-10-02T01:55:57.419Z,79.50
2022-10-02T01:58:34.238Z,79.26
2022-10-02T02:01:08.030Z,80.53
2022-10-02T02:03:39.970Z,79.76
2022-10-02T02:06:29.712Z,79.10
2022-10-02T02:09:32.929Z,79.10
2022-10-02T02:12:22.449Z,78.34
2022-10-02T02:15:03.698Z,78.01
2022-10-02T02:18:11.532Z,78.24
2022-10-02T02:20:51.866Z,78.82
2022-10-02T02:23:25.873Z,79.12
2022-10-02T02:25:59.656Z,78.52
2022-10-02T02:28:30.712Z,78.09
2022-10-02T02:30:59.236Z,78.23
2022-10-02T02:33:39.351Z,78.04
2022-10-02T02:36:13.403Z,78.20
2022-10-02T02:38:47.970Z,77.39
2022-10-02T02:41:24.182Z,77.62
2022-10-02T02:44:21.904Z,77.35
2022-10-02T02:47:22.502Z,77.13
2022-10-02T02:50:00.434Z,77.47
2022-10-02T02:52:45.597Z,77.15
2022-10-02T02:55:19.082Z,77.28
2022-10-02T02:58:02.296Z,76.72
2022-10-02T03:00:29.204Z,76.66
2022-10-02T03:02:56.010Z,76.80
2022-10-02T03:05:25.162Z,77.87
2022-10-02T03:08:31.500Z,77.45
2022-10-02T03:11:32.892Z,76.69
2022-10-02T03:14:11.082Z,76.58
2022-10-02T03:17:10.666Z,76.62
2022-10-02T03:19:55.034Z,76.72
2022-10-02T03:22:59.978Z,75.39
2022-10-02T03:25:47.206Z,75.73
2022-10-02T03:28:55.136Z,75.58
2022-10-02T03:31:25.068Z,75.77
2022-10-02T03:33:53.815Z,75.97
2022-10-02T03:36:22.425Z,75.99
2022-10-02T03:39:06.225Z,76.89
2022-10-02T03:41:36.996Z,76.36
2022-10-02T03:44:03.965Z,75.76
2022-10-02T03:46:30.848Z,76.01
2022-10-02T03:48:57.703Z,76.24
2022-10-02T03:51:24.582Z,76.06
2022-10-02T03:53:52.267Z,76.23
2022-10-02T03:56:47.617Z,76.56
2022-10-02T03:59:29.595Z,76.46
2022-10-02T04:01:58.187Z,76.66
2022-10-02T04:04:47.145Z,76.26
2022-10-02T04:07:24.720Z,76.15
2022-10-02T04:10:12.700Z,76.25
2022-10-02T04:12:49.555Z,76.19
2022-10-02T04:15:28.146Z,77.22
2022-10-02T04:18:21.000Z,76.74
2022-10-02T04:20:53.409Z,76.71
2022-10-02T04:23:32.611Z,76.41
2022-10-02T04:26:17.053Z,76.01
2022-10-02T04:28:52.368Z,76.08
2022-10-02T04:31:19.207Z,76.15
2022-10-02T04:33:46.056Z,76.47
2022-10-02T04:36:38.602Z,76.17
2022-10-02T04:39:34.713Z,76.31
2022-10-02T04:42:23.677Z,76.50
2022-10-02T04:45:12.555Z,75.82
2022-10-02T04:48:25.757Z,75.99
2022-10-02T04:51:20.302Z,76.18
2022-10-02T04:54:31.425Z,75.71
2022-10-02T04:57:19.540Z,76.36
2022-10-02T05:00:08.657Z,77.17
2022-10-02T05:03:38.293Z,76.44
2022-10-02T05:07:04.475Z,76.58
2022-10-02T05:10:01.737Z,77.21
2022-10-02T05:13:08.923Z,78.23
2022-10-02T05:16:28.492Z,77.54
2022-10-02T05:19:42.279Z,78.08
2022-10-02T05:22:46.946Z,77.73
2022-10-02T05:25:36.953Z,77.48
2022-10-02T05:28:43.388Z,77.64
2022-10-02T05:31:28.228Z,77.50
2022-10-02T05:34:04.410Z,77.80
2022-10-02T05:37:04.409Z,77.58
2022-10-02T05:39:42.550Z,77.58
2022-10-02T05:42:32.851Z,77.66
2022-10-02T05:45:25.517Z,78.04
2022-10-02T05:48:03.104Z,78.26
2022-10-02T05:50:36.512Z,77.91
2022-10-02T05:53:21.710Z,78.12
2022-10-02T05:56:16.371Z,78.06
2022-10-02T05:58:56.743Z,77.97
2022-10-02T06:01:35.471Z,78.32
2022-10-02T06:04:14.038Z,78.23
2022-10-02T06:06:49.057Z,78.04
2022-10-02T06:09:23.021Z,78.20
2022-10-02T06:11:49.720Z,78.33
2022-10-02T06:14:39.501Z,78.89
2022-10-02T06:17:20.137Z,78.47
2022-10-02T06:20:31.809Z,78.30
2022-10-02T06:23:21.891Z,78.21
2022-10-02T06:25:58.242Z,78.68
2022-10-02T06:29:17.458Z,78.50
2022-10-02T06:32:00.092Z,78.51
2022-10-02T06:34:27.032Z,78.30
2022-10-02T06:37:34.565Z,78.33
2022-10-02T06:40:24.425Z,77.50
2022-10-02T06:43:03.302Z,77.51
2022-10-02T06:46:03.061Z,77.46
2022-10-02T06:48:58.612Z,77.36
2022-10-02T06:51:53.923Z,76.99
2022-10-02T06:54:47.608Z,76.66
2022-10-02T06:57:37.384Z,77.38
2022-10-02T07:00:14.651Z,77.21
2022-10-02T07:03:16.952Z,76.76
2022-10-02T07:05:58.223Z,77.11
2022-10-02T07:08:34.074Z,76.72
2022-10-02T07:11:43.059Z,77.22
2022-10-02T07:14:51.077Z,76.98
2022-10-02T07:17:53.059Z,77.39
2022-10-02T07:20:59.722Z,77.29
2022-10-02T07:23:58.887Z,76.37
2022-10-02T07:26:49.678Z,76.16
2022-10-02T07:29:46.837Z,75.74
2022-10-02T07:32:28.726Z,75.68
2022-10-02T07:35:25.827Z,74.85
2022-10-02T07:38:14.409Z,74.71
2022-10-02T07:41:11.830Z,74.91
2022-10-02T07:43:47.754Z,74.98
2022-10-02T07:46:24.040Z,74.37
2022-10-02T07:49:14.948Z,73.95
2022-10-02T07:51:56.837Z,73.65
2022-10-02T07:55:09.731Z,73.42
2022-10-02T07:57:59.541Z,73.52
2022-10-02T08:00:31.324Z,73.36
2022-10-02T08:03:04.838Z,73.50
2022-10-02T08:05:38.359Z,73.59
2022-10-02T08:08:23.661Z,73.52
2022-10-02T08:11:02.097Z,73.74
2022-10-02T08:13:39.729Z,73.82
2022-10-02T08:16:08.636Z,73.49
2022-10-02T08:18:48.481Z,74.12
2022-10-02T08:21:20.365Z,74.14
2022-10-02T08:23:59.825Z,73.85
2022-10-02T08:26:47.612Z,73.41
2022-10-02T08:29:25.510Z,72.70
2022-10-02T08:31:53.241Z,73.09
2022-10-02T08:34:23.785Z,73.40
2022-10-02T08:36:56.278Z,73.48
2022-10-02T08:39:44.143Z,73.58
2022-10-02T08:42:45.485Z,73.05
2022-10-02T08:45:36.165Z,72.62
2022-10-02T08:48:34.088Z,72.74
2022-10-02T08:51:42.061Z,73.34
2022-10-02T08:54:20.140Z,72.70
2022-10-02T08:57:19.513Z,72.52
2022-10-02T09:00:16.977Z,71.81
2022-10-02T09:03:08.417Z,71.44
2022-10-02T09:05:53.024Z,71.87
2022-10-02T09:08:45.385Z,71.76
2022-10-02T09:11:45.161Z,72.40
2022-10-02T09:14:39.377Z,72.32
2022-10-02T09:17:35.634Z,71.87
2022-10-02T09:20:12.000Z,72.00
2022-10-02T09:23:03.388Z,71.72
2022-10-02T09:26:04.617Z,71.64
2022-10-02T09:29:09.332Z,70.18
2022-10-02T09:32:12.720Z,71.25
2022-10-02T09:35:30.548Z,70.97
2022-10-02T09:38:21.152Z,70.42
2022-10-02T09:41:59.137Z,71.72
2022-10-02T09:45:01.747Z,71.30
2022-10-02T09:48:23.600Z,71.66
2022-10-02T09:51:14.375Z,72.40
2022-10-02T09:54:18.069Z,72.20
2022-10-02T09:57:31.842Z,74.66
2022-10-02T10:00:22.092Z,73.70
2022-10-02T10:03:36.305Z,73.64
2022-10-02T10:06:39.106Z,71.70
2022-10-02T10:09:26.878Z,73.11
2022-10-02T10:12:24.452Z,73.46
2022-10-02T10:15:09.427Z,76.50
2022-10-02T10:18:26.533Z,76.08
2022-10-02T10:21:30.460Z,74.54
2022-10-02T10:24:09.113Z,74.02
2022-10-02T10:27:01.339Z,74.47
2022-10-02T10:30:00.298Z,75.81
2022-10-02T10:33:08.147Z,74.15
2022-10-02T10:36:00.702Z,70.01
2022-10-02T10:38:58.812Z,69.25
2022-10-02T10:42:06.208Z,67.80
2022-10-02T10:45:00.926Z,67.61
2022-10-02T10:47:43.616Z,67.13
2022-10-02T10:50:38.474Z,67.83
2022-10-02T10:53:50.577Z,69.48
2022-10-02T10:56:40.460Z,68.04
2022-10-02T10:59:44.805Z,67.37
2022-10-02T11:02:53.178Z,67.03
2022-10-02T11:05:51.435Z,65.52
2022-10-02T11:08:54.239Z,64.71
2022-10-02T11:11:45.237Z,64.12
2022-10-02T11:14:43.851Z,64.51
2022-10-02T11:17:25.558Z,64.44
2022-10-02T11:20:04.326Z,63.97
2022-10-02T11:23:16.187Z,64.59
2022-10-02T11:26:02.144Z,64.76
2022-10-02T11:28:47.306Z,65.46
2022-10-02T11:31:46.987Z,63.68
2022-10-02T11:35:00.782Z,62.80
2022-10-02T11:38:03.787Z,60.67
2022-10-02T11:41:08.986Z,60.27
2022-10-02T11:44:24.612Z,62.07
2022-10-02T11:47:20.000Z,61.53
2022-10-02T11:50:15.687Z,62.04
2022-10-02T11:53:19.730Z,62.45
2022-10-02T11:56:14.278Z,61.93
2022-10-02T11:59:10.022Z,61.17
2022-10-02T12:02:08.574Z,61.99
2022-10-02T12:05:18.334Z,62.58
2022-10-02T12:08:01.556Z,62.16
2022-10-02T12:11:12.774Z,64.34
2022-10-02T12:14:01.393Z,64.58
2022-10-02T12:16:52.641Z,64.47
2022-10-02T12:20:13.007Z,64.35
2022-10-02T12:23:54.270Z,65.97
2022-10-02T12:26:51.369Z,64.38
2022-10-02T12:29:42.122Z,66.92
2022-10-02T12:32:37.343Z,68.31
2022-10-02T12:35:38.688Z,68.01
2022-10-02T12:38:26.592Z,68.15
2022-10-02T12:41:25.001Z,68.17
2022-10-02T12:44:32.704Z,68.20
2022-10-02T12:47:02.237Z,68.29
2022-10-02T12:49:47.453Z,64.91
2022-10-02T12:53:07.831Z,64.35
2022-10-02T12:55:55.814Z,66.42
2022-10-02T12:58:49.949Z,67.01
2022-10-02T13:01:44.386Z,68.36
2022-10-02T13:04:16.927Z,68.58
2022-10-02T13:07:31.466Z,68.29
2022-10-02T13:10:03.934Z,66.64
2022-10-02T13:13:22.561Z,66.95
2022-10-02T13:16:22.887Z,66.34
2022-10-02T13:19:23.451Z,62.91
2022-10-02T13:22:31.667Z,63.10
2022-10-02T13:25:26.250Z,55.22
2022-10-02T13:28:09.592Z,54.29
2022-10-02T13:30:53.888Z,55.68
2022-10-02T13:34:01.262Z,56.81
2022-10-02T13:37:02.020Z,56.51
2022-10-02T13:39:46.908Z,57.38
2022-10-02T13:43:15.592Z,58.33
2022-10-02T13:46:22.637Z,61.06
2022-10-02T13:49:31.832Z,63.25
2022-10-02T13:52:44.147Z,64.32
2022-10-02T13:55:29.106Z,62.78
2022-10-02T13:58:19.912Z,63.40
2022-10-02T14:01:12.600Z,63.91
2022-10-02T14:04:19.322Z,64.68
2022-10-02T14:07:12.316Z,64.19
2022-10-02T14:09:54.030Z,64.63
2022-10-02T14:12:53.999Z,65.82
2022-10-02T14:16:08.524Z,66.98
2022-10-02T14:18:53.036Z,68.45
2022-10-02T14:21:30.943Z,69.07
2022-10-02T14:24:47.045Z,69.35
2022-10-02T14:27:44.396Z,70.38
2022-10-02T14:30:39.915Z,70.70
2022-10-02T14:34:02.269Z,71.65
2022-10-02T14:36:42.857Z,72.52
2022-10-02T14:39:37.783Z,72.98
2022-10-02T14:42:42.323Z,73.48
2022-10-02T14:46:04.750Z,74.34
2022-10-02T14:48:56.225Z,75.73
2022-10-02T14:51:29.007Z,76.10
2022-10-02T14:54:07.453Z,76.11
2022-10-02T14:56:59.573Z,76.58
2022-10-02T14:59:50.457Z,76.45
2022-10-02T15:02:53.904Z,76.62
2022-10-02T15:05:36.065Z,76.08
2022-10-02T15:08:12.828Z,76.47
2022-10-02T15:10:42.323Z,77.36
2022-10-02T15:13:24.613Z,77.99
2022-10-02T15:16:17.877Z,78.38
2022-10-02T15:19:08.106Z,77.63
2022-10-02T15:22:23.278Z,78.76
2022-10-02T15:24:57.753Z,78.69
2022-10-02T15:27:54.996Z,77.96
2022-10-02T15:30:23.840Z,78.08
2022-10-02T15:33:18.527Z,77.92
2022-10-02T15:36:10.184Z,77.26
2022-10-02T15:38:49.470Z,77.00
2022-10-02T15:41:51.452Z,77.00
2022-10-02T15:45:11.115Z,76.91
2022-10-02T15:48:21.261Z,75.73
2022-10-02T15:51:11.780Z,76.22
2022-10-02T15:54:31.324Z,76.21
2022-10-02T15:57:25.892Z,77.24
2022-10-02T16:00:14.474Z,76.73
2022-10-02T16:02:56.524Z,77.33
2022-10-02T16:05:51.236Z,77.31
2022-10-02T16:08:45.213Z,77.21
2022-10-02T16:11:33.441Z,77.44
2022-10-02T16:14:18.938Z,77.24
2022-10-02T16:17:23.944Z,77.72
2022-10-02T16:20:35.864Z,78.26
2022-10-02T16:23:33.109Z,78.22
2022-10-02T16:26:10.631Z,77.74
2022-10-02T16:28:51.805Z,78.10
2022-10-02T16:31:53.190Z,77.61
2022-10-02T16:35:02.342Z,77.80
2022-10-02T16:37:46.652Z,77.58
2022-10-02T16:40:23.297Z,77.57
2022-10-02T16:43:23.703Z,77.92
2022-10-02T16:46:09.023Z,77.68
2022-10-02T16:48:48.496Z,77.95
2022-10-02T16:51:55.915Z,78.08
2022-10-02T16:54:38.432Z,78.33
2022-10-02T16:57:22.301Z,77.76
2022-10-02T17:00:15.038Z,77.92
2022-10-02T17:02:52.112Z,77.94
2022-10-02T17:05:47.020Z,79.30
2022-10-02T17:08:38.235Z,79.51
2022-10-02T17:11:30.058Z,79.78
2022-10-02T17:14:40.845Z,80.10
2022-10-02T17:17:31.269Z,79.32
2022-10-02T17:20:01.064Z,79.30
2022-10-02T17:22:43.306Z,79.19
2022-10-02T17:25:23.004Z,79.61
2022-10-02T17:28:06.437Z,79.74
2022-10-02T17:31:01.483Z,80.02
2022-10-02T17:33:42.917Z,80.62
2022-10-02T17:36:35.773Z,80.98
2022-10-02T17:39:32.539Z,80.50
2022-10-02T17:42:14.149Z,80.65
2022-10-02T17:45:04.252Z,80.20
2022-10-02T17:48:10.204Z,79.85
2022-10-02T17:50:51.643Z,79.31
2022-10-02T17:53:55.793Z,79.19
2022-10-02T17:56:53.445Z,79.98
2022-10-02T17:59:53.420Z,80.60
2022-10-02T18:03:05.849Z,80.79
2022-10-02T18:05:56.287Z,80.21
2022-10-02T18:08:51.929Z,79.97
2022-10-02T18:11:21.330Z,80.38
2022-10-02T18:14:07.482Z,80.50
2022-10-02T18:17:31.062Z,79.93
2022-10-02T18:20:12.110Z,79.57
2022-10-02T18:22:55.553Z,79.88
2022-10-02T18:25:36.868Z,79.98
2022-10-02T18:28:23.101Z,79.79
2022-10-02T18:31:07.117Z,79.89
2022-10-02T18:34:08.506Z,80.06
2022-10-02T18:37:09.611Z,79.77
2022-10-02T18:40:11.137Z,80.02
2022-10-02T18:43:06.144Z,80.72
2022-10-02T18:46:27.485Z,80.13
2022-10-02T18:49:03.150Z,80.53
2022-10-02T18:52:07.018Z,80.52
2022-10-02T18:55:18.568Z,80.18
2022-10-02T18:57:55.692Z,79.80
2022-10-02T19:00:24.977Z,79.67
2022-10-02T19:03:42.422Z,80.17
2022-10-02T19:06:52.279Z,79.81
2022-10-02T19:09:29.919Z,79.91
2022-10-02T19:12:01.588Z,79.90
2022-10-02T19:14:45.485Z,80.10
2022-10-02T19:17:18.715Z,80.31
2022-10-02T19:19:45.488Z,80.19
2022-10-02T19:22:25.168Z,80.47
2022-10-02T19:25:16.226Z,80.41
2022-10-02T19:27:50.401Z,80.22
2022-10-02T19:30:30.421Z,80.39
2022-10-02T19:33:02.564Z,80.66
2022-10-02T19:35:33.535Z,80.31
2022-10-02T19:38:25.707Z,79.84
2022-10-02T19:40:55.623Z,79.75
2022-10-02T19:43:33.686Z,80.02
2022-10-02T19:46:05.440Z,80.57
2022-10-02T19:48:33.411Z,80.51
2022-10-02T19:51:04.878Z,80.19
2022-10-02T19:53:41.588Z,80.32
2022-10-02T19:56:29.586Z,80.57
2022-10-02T19:59:04.544Z,81.02
2022-10-02T20:01:49.426Z,80.52
2022-10-02T20:04:21.899Z,80.39
2022-10-02T20:06:54.700Z,80.25
2022-10-02T20:09:38.362Z,80.09
2022-10-02T20:12:22.269Z,79.84
2022-10-02T20:15:17.690Z,80.26
2022-10-02T20:17:44.609Z,80.17
2022-10-02T20:20:16.823Z,81.29
2022-10-02T20:22:56.587Z,81.19
2022-10-02T20:25:37.310Z,80.87
2022-10-02T20:28:34.896Z,80.70
2022-10-02T20:31:11.540Z,80.58
2022-10-02T20:33:48.837Z,80.59
2022-10-02T20:36:27.116Z,80.78
2022-10-02T20:39:07.330Z,81.01
2022-10-02T20:42:03.566Z,80.87
2022-10-02T20:44:34.004Z,81.29
2022-10-02T20:47:55.056Z,81.35
2022-10-02T20:50:51.489Z,81.53
2022-10-02T20:54:23.432Z,81.40
2022-10-02T20:58:00.543Z,81.19
2022-10-02T21:00:53.961Z,81.33
2022-10-02T21:03:45.565Z,81.22
2022-10-02T21:07:10.731Z,81.41
2022-10-02T21:09:46.038Z,81.12
2022-10-02T21:12:34.797Z,81.33
2022-10-02T21:15:06.992Z,81.13
2022-10-02T21:17:58.700Z,80.94
2022-10-02T21:21:13.221Z,81.09
2022-10-02T21:24:19.704Z,81.28
2022-10-02T21:27:02.247Z,81.19
2022-10-02T21:29:43.910Z,81.21
2022-10-02T21:32:34.853Z,81.19
2022-10-02T21:35:53.252Z,81.40
2022-10-02T21:38:57.053Z,81.78
2022-10-02T21:42:01.944Z,81.30
2022-10-02T21:45:00.323Z,81.13
2022-10-02T21:48:18.690Z,81.06
2022-10-02T21:51:10.411Z,81.29
2022-10-02T21:54:24.882Z,81.12
2022-10-02T21:57:11.780Z,81.12
2022-10-02T21:59:43.657Z,80.80
2022-10-02T22:02:34.952Z,80.84
2022-10-02T22:05:29.302Z,81.08
2022-10-02T22:08:08.380Z,80.84
2022-10-02T22:11:02.469Z,80.51
2022-10-02T22:13:38.715Z,81.11
2022-10-02T22:16:42.937Z,80.66
2022-10-02T22:20:06.804Z,80.61
2022-10-02T22:22:48.425Z,80.88
2022-10-02T22:25:49.715Z,80.71
2022-10-02T22:28:22.674Z,80.72
2022-10-02T22:30:55.650Z,80.50
2022-10-02T22:33:54.945Z,80.57
2022-10-02T22:36:56.899Z,80.64
2022-10-02T22:39:45.526Z,80.61
2022-10-02T22:42:23.779Z,80.65
2022-10-02T22:44:54.416Z,80.65
2022-10-02T22:47:37.307Z,80.39
2022-10-02T22:50:23.149Z,80.13
2022-10-02T22:53:20.868Z,80.00
2022-10-02T22:55:53.009Z,80.16
2022-10-02T22:58:45.455Z,80.03
2022-10-02T23:01:37.782Z,80.05
2022-10-02T23:04:34.681Z,80.07
2022-10-02T23:07:23.203Z,79.73
2022-10-02T23:10:05.877Z,79.84
2022-10-02T23:12:44.912Z,79.63
2022-10-02T23:15:27.203Z,79.90
2022-10-02T23:18:06.677Z,79.97
2022-10-02T23:20:39.059Z,80.06
2022-10-02T23:23:32.321Z,79.97
2022-10-02T23:26:13.903Z,79.85
2022-10-02T23:28:56.329Z,79.69
2022-10-02T23:31:33.270Z,79.56
2022-10-02T23:34:32.587Z,79.42
2022-10-02T23:37:17.009Z,79.20
2022-10-02T23:39:43.654Z,79.08
2022-10-02T23:42:20.105Z,79.10
2022-10-02T23:45:19.357Z,79.49
2022-10-02T23:48:07.661Z,79.59
2022-10-02T23:51:01.888Z,79.56
2022-10-02T23:53:43.583Z,80.67
2022-10-02T23:56:44.406Z,80.96
2022-10-02T23:59:37.791Z,81.26
